Etusivu
METAR-TAF:

METAR-TAF

Lentoasemat :

Le Mars Municipal Airport

Le Mars, Iowa, Yhdysvallat

Leveyspiiri: 42-46-41N, Pituuspiiri: 096-11-37W, korkeus merenpinnasta: 365 m

Tämänhetkinen sää

Tämä raportti tehtiin 22 minuuttia sitten, kello 07.55 UTC
Tuuli 15 kn luoteesta puuskistuen 29 kn:hen
Lämpötila 20°C
Kosteus 88%
Ilmanpaine 1015 hPa
Näkyvyys: 4.8 km
Muutamia pilviä 700 ft:n korkeudessa
Hajanaisia pilviä 2900 ft:n korkeudessa
Hajonneita pilviä 4100 ft:n korkeudessa
heikkoa sadetta

METAR: KLRJ 090755Z AUTO 31015G29KT 3SM -RA FEW007 SCT029 BKN041 20/18 A2998 RMK AO2 P0002

Aika: 03:17 (08:17 UTC)


TAF: puuttuu

Säähavainnot ja -ennusteet yli 4000 lentoasemalta (METAR- ja TAF-raportit).

Käytössä olevat sääasemat on merkitty karttaan keltaisilla ja punaisilla pisteillä.

Aseta hiiri pisteen päälle nähdäksesi sääaseman nimen.

Klikkaa sitten nähdäksesi säähavainnot ja -ennusteet.

Kartan vaihtaminen: klikkaa mustalla rastilla varustettuja vihreitä pisteitä, niin voit zoomata sisään; viivalla varustettua vihreää pistettä, niin voit zoomata ulos tai vihreitä nuolia, niin pääset viereisille kartoille.


METAR-TAF: